createdAt,value
2022-08-17T00:00:49.452Z,7.80
2022-08-17T00:03:26.167Z,8.00
2022-08-17T00:06:01.174Z,8.30
2022-08-17T00:08:40.083Z,9.10
2022-08-17T00:11:09.706Z,8.52
2022-08-17T00:13:43.800Z,8.57
2022-08-17T00:16:23.239Z,8.45
2022-08-17T00:19:13.521Z,8.52
2022-08-17T00:22:29.628Z,8.80
2022-08-17T00:24:30.986Z,9.15
2022-08-17T00:26:57.654Z,8.23
2022-08-17T00:29:24.211Z,8.70
2022-08-17T00:31:54.025Z,8.43
2022-08-17T00:34:24.105Z,9.32
2022-08-17T00:36:50.831Z,8.45
2022-08-17T00:41:44.137Z,8.15
2022-08-17T00:46:43.850Z,8.57
2022-08-17T00:49:13.197Z,10.27
2022-08-17T00:52:10.808Z,9.20
2022-08-17T00:54:42.555Z,9.35
2022-08-17T00:57:13.848Z,9.43
2022-08-17T00:59:45.573Z,8.68
2022-08-17T01:02:15.820Z,8.68
2022-08-17T01:04:44.788Z,10.20
2022-08-17T01:07:12.251Z,8.10
2022-08-17T01:09:40.358Z,8.52
2022-08-17T01:12:12.333Z,8.77
2022-08-17T01:14:39.747Z,8.65
2022-08-17T01:17:07.769Z,8.38
2022-08-17T01:19:39.318Z,9.95
2022-08-17T01:22:09.108Z,8.32
2022-08-17T01:24:37.245Z,9.05
2022-08-17T01:27:10.388Z,7.55
2022-08-17T01:29:39.499Z,8.68
2022-08-17T01:32:08.177Z,8.50
2022-08-17T01:34:43.775Z,8.35
2022-08-17T01:37:18.491Z,8.80
2022-08-17T01:40:08.839Z,9.18
2022-08-17T01:42:43.119Z,8.98
2022-08-17T01:45:15.274Z,8.63
2022-08-17T01:47:41.960Z,9.70
2022-08-17T01:50:15.796Z,10.15
2022-08-17T01:52:47.337Z,8.32
2022-08-17T01:55:17.123Z,8.90
2022-08-17T01:57:58.039Z,9.77
2022-08-17T02:00:27.099Z,9.27
2022-08-17T02:03:18.611Z,9.20
2022-08-17T02:05:46.770Z,9.45
2022-08-17T02:08:19.724Z,9.07
2022-08-17T02:10:48.619Z,9.30
2022-08-17T02:13:16.365Z,8.10
2022-08-17T02:15:45.494Z,9.88
2022-08-17T02:18:15.237Z,9.32
2022-08-17T02:20:45.511Z,8.88
2022-08-17T02:23:13.220Z,8.82
2022-08-17T02:25:43.434Z,8.55
2022-08-17T02:28:11.306Z,8.70
2022-08-17T02:31:00.282Z,10.23
2022-08-17T02:33:25.230Z,8.50
2022-08-17T02:36:10.659Z,8.80
2022-08-17T02:38:37.944Z,9.05
2022-08-17T02:41:05.287Z,8.50
2022-08-17T02:43:32.586Z,8.90
2022-08-17T02:45:59.136Z,8.55
2022-08-17T02:48:30.579Z,9.07
2022-08-17T02:50:59.660Z,8.98
2022-08-17T02:53:35.662Z,9.05
2022-08-17T02:56:03.375Z,9.27
2022-08-17T02:58:34.981Z,9.63
2022-08-17T03:01:05.006Z,8.90
2022-08-17T03:03:34.680Z,8.35
2022-08-17T03:06:01.827Z,9.50
2022-08-17T03:08:28.630Z,9.13
2022-08-17T03:13:22.328Z,9.23
2022-08-17T03:15:49.891Z,9.75
2022-08-17T03:18:24.722Z,9.85
2022-08-17T03:21:01.006Z,10.02
2022-08-17T03:23:29.551Z,8.05
2022-08-17T03:25:56.734Z,8.50
2022-08-17T03:28:23.974Z,10.15
2022-08-17T03:30:51.709Z,8.77
2022-08-17T03:33:18.935Z,9.25
2022-08-17T03:35:46.133Z,8.88
2022-08-17T03:38:15.248Z,8.90
2022-08-17T03:40:58.759Z,8.50
2022-08-17T03:43:29.252Z,9.00
2022-08-17T03:46:28.636Z,10.00
2022-08-17T03:49:19.247Z,9.60
2022-08-17T03:52:04.739Z,8.70
2022-08-17T03:54:49.891Z,9.68
2022-08-17T03:57:16.769Z,9.60
2022-08-17T03:59:44.939Z,8.93
2022-08-17T04:02:19.402Z,10.20
2022-08-17T04:04:46.687Z,9.93
2022-08-17T04:07:13.291Z,9.63
2022-08-17T04:09:39.869Z,8.90
2022-08-17T04:12:06.632Z,9.02
2022-08-17T04:17:21.438Z,8.70
2022-08-17T04:19:48.034Z,8.75
2022-08-17T04:22:30.353Z,9.85
2022-08-17T04:25:02.451Z,8.93
2022-08-17T04:27:29.030Z,9.18
2022-08-17T04:29:56.204Z,10.63
2022-08-17T04:32:59.190Z,9.05
2022-08-17T04:35:10.514Z,9.80
2022-08-17T04:37:37.128Z,9.02
2022-08-17T04:40:23.066Z,9.23
2022-08-17T04:43:10.155Z,10.13
2022-08-17T04:45:55.013Z,9.48
2022-08-17T04:48:22.793Z,9.48
2022-08-17T04:50:54.340Z,9.70
2022-08-17T04:53:23.625Z,9.90
2022-08-17T04:55:52.406Z,8.68
2022-08-17T04:58:19.619Z,8.38
2022-08-17T05:00:46.299Z,8.23
2022-08-17T05:03:13.555Z,8.20
2022-08-17T05:05:43.480Z,8.05
2022-08-17T05:08:10.278Z,9.20
2022-08-17T05:13:16.365Z,8.05
2022-08-17T05:15:47.771Z,8.32
2022-08-17T05:18:17.380Z,7.75
2022-08-17T05:20:44.606Z,7.60
2022-08-17T05:23:15.001Z,8.30
2022-08-17T05:25:47.424Z,8.23
2022-08-17T05:28:41.863Z,8.20
2022-08-17T05:31:12.803Z,8.27
2022-08-17T05:33:46.165Z,8.18
2022-08-17T05:36:43.247Z,8.05
2022-08-17T05:39:03.874Z,7.75
2022-08-17T05:41:33.471Z,7.85
2022-08-17T05:44:05.554Z,8.68
2022-08-17T05:46:48.022Z,8.07
2022-08-17T05:49:26.939Z,7.13
2022-08-17T05:52:37.879Z,7.45
2022-08-17T06:01:54.331Z,7.90
2022-08-17T06:04:44.812Z,8.18
2022-08-17T06:48:15.387Z,9.32
2022-08-17T06:58:16.341Z,8.48
2022-08-17T07:04:30.570Z,9.13
2022-08-17T07:07:27.643Z,8.75
2022-08-17T07:09:57.639Z,8.80
2022-08-17T07:12:39.459Z,8.75
2022-08-17T07:15:38.254Z,8.85
2022-08-17T07:18:08.882Z,7.35
2022-08-17T07:21:17.639Z,6.65
2022-08-17T07:24:29.359Z,6.20
2022-08-17T07:27:09.432Z,5.97
2022-08-17T13:13:56.245Z,2.85
2022-08-17T13:14:43.169Z,2.90
2022-08-17T13:17:13.298Z,2.92
2022-08-17T13:19:52.186Z,3.60
2022-08-17T13:26:15.487Z,3.13
2022-08-17T13:28:51.406Z,3.10
2022-08-17T13:31:30.399Z,3.70
2022-08-17T13:35:39.165Z,3.20
2022-08-17T13:39:00.613Z,3.40
2022-08-17T13:45:36.768Z,3.42
2022-08-17T13:48:40.342Z,3.30
2022-08-17T13:52:10.564Z,3.50
2022-08-17T13:55:26.310Z,3.35
2022-08-17T13:58:07.115Z,3.42
2022-08-17T14:00:58.808Z,3.90
2022-08-17T14:03:27.806Z,3.30
2022-08-17T14:05:57.117Z,3.63
2022-08-17T14:08:24.000Z,3.90
2022-08-17T14:10:58.494Z,3.20
2022-08-17T14:13:25.102Z,3.38
2022-08-17T14:15:55.581Z,3.50
2022-08-17T14:36:51.221Z,3.17
2022-08-17T14:46:58.064Z,3.75
2022-08-17T14:49:28.313Z,2.95
2022-08-17T14:51:55.291Z,3.60
2022-08-17T14:54:53.773Z,4.05
2022-08-17T14:57:46.841Z,3.33
2022-08-17T15:00:17.332Z,3.00
2022-08-17T15:02:46.024Z,3.53
2022-08-17T15:05:18.471Z,3.10
2022-08-17T15:07:45.049Z,3.60
2022-08-17T15:10:13.603Z,3.53
2022-08-17T15:12:41.592Z,4.07
2022-08-17T15:15:16.596Z,3.88
2022-08-17T15:17:46.021Z,3.50
2022-08-17T15:20:16.405Z,3.55
2022-08-17T15:22:45.389Z,3.35
2022-08-17T15:25:14.873Z,3.85
2022-08-17T15:27:42.118Z,3.70
2022-08-17T15:30:18.902Z,2.75
2022-08-17T15:32:54.049Z,3.47
2022-08-17T15:35:39.755Z,3.20
2022-08-17T15:38:11.955Z,3.60
2022-08-17T15:40:53.551Z,3.38
2022-08-17T15:43:28.228Z,3.72
2022-08-17T15:46:00.238Z,3.28
2022-08-17T15:51:58.087Z,3.20
2022-08-17T15:54:34.512Z,4.55
2022-08-17T15:57:02.933Z,3.50
2022-08-17T15:59:31.094Z,3.78
2022-08-17T16:03:15.177Z,3.00
2022-08-17T16:05:00.035Z,3.47
2022-08-17T16:07:28.782Z,3.17
2022-08-17T16:09:55.431Z,3.58
2022-08-17T16:12:22.353Z,3.40
2022-08-17T16:14:52.600Z,4.00
2022-08-17T16:25:18.097Z,4.07
2022-08-17T16:27:45.967Z,3.70
2022-08-17T16:30:17.539Z,3.92
2022-08-17T16:32:45.431Z,4.43
2022-08-17T16:35:16.223Z,3.90
2022-08-17T16:37:45.382Z,4.00
2022-08-17T16:40:14.376Z,4.10
2022-08-17T16:42:41.196Z,3.97
2022-08-17T16:45:17.032Z,3.83
2022-08-17T16:47:44.016Z,4.15
2022-08-17T16:50:13.766Z,5.07
2022-08-17T16:52:40.509Z,4.10
2022-08-17T16:55:13.258Z,3.83
2022-08-17T16:57:47.356Z,4.28
2022-08-17T17:00:21.100Z,3.72
2022-08-17T17:02:53.823Z,4.20
2022-08-17T17:05:34.302Z,4.72
2022-08-17T17:08:35.002Z,4.40
2022-08-17T17:14:00.062Z,4.03
2022-08-17T17:16:37.304Z,5.03
2022-08-17T17:19:17.970Z,4.82
2022-08-17T17:22:16.586Z,4.47
2022-08-17T17:25:20.828Z,5.13
2022-08-17T17:28:29.139Z,5.15
2022-08-17T17:38:19.803Z,4.22
2022-08-17T17:41:10.757Z,4.65
2022-08-17T17:43:39.948Z,4.93
2022-08-17T17:46:52.598Z,5.22
2022-08-17T17:51:02.791Z,5.28
2022-08-17T20:32:08.143Z,6.60
2022-08-17T20:34:39.740Z,6.55
2022-08-17T20:37:27.056Z,6.60
2022-08-17T20:39:56.583Z,7.32
2022-08-17T20:42:27.189Z,7.00
2022-08-17T20:45:02.740Z,6.72
2022-08-17T20:48:00.757Z,5.75
2022-08-17T20:50:37.897Z,6.28
2022-08-17T20:53:28.156Z,6.50
2022-08-17T20:55:56.843Z,6.72
2022-08-17T20:58:45.394Z,7.78
2022-08-17T21:01:26.531Z,6.13
2022-08-17T21:03:54.569Z,6.38
2022-08-17T21:06:55.348Z,7.57
2022-08-17T21:09:46.845Z,6.93
2022-08-17T21:12:57.202Z,6.47
2022-08-17T21:15:44.410Z,6.95
2022-08-17T21:19:12.399Z,7.10
2022-08-17T21:22:06.471Z,6.93
2022-08-17T21:25:02.263Z,6.65
2022-08-17T21:27:47.077Z,7.65
2022-08-17T21:34:07.899Z,7.95
2022-08-17T21:36:48.246Z,7.85
2022-08-17T21:57:33.559Z,8.68
2022-08-17T22:00:50.222Z,8.80
2022-08-17T22:03:38.414Z,8.57
2022-08-17T22:06:55.806Z,8.80
2022-08-17T22:09:49.587Z,8.38
2022-08-17T22:12:28.863Z,8.25
2022-08-17T22:15:07.193Z,9.38
2022-08-17T22:17:40.483Z,8.90
2022-08-17T22:20:28.877Z,9.05
2022-08-17T22:23:28.727Z,8.70
2022-08-17T22:26:25.438Z,8.98
2022-08-17T22:28:58.385Z,9.93
2022-08-17T22:32:21.601Z,9.40
2022-08-17T22:35:26.678Z,9.27
2022-08-17T22:38:24.065Z,8.82
2022-08-17T22:41:26.258Z,9.07
2022-08-17T22:44:39.622Z,9.95
2022-08-17T22:47:51.608Z,10.13
2022-08-17T22:53:41.788Z,9.32
2022-08-17T22:56:36.321Z,9.40
2022-08-17T22:59:22.854Z,10.05
2022-08-17T23:02:27.541Z,9.32
2022-08-17T23:05:30.792Z,8.82
2022-08-17T23:11:20.446Z,9.63
2022-08-17T23:17:37.448Z,9.52
2022-08-17T23:20:49.624Z,9.27
2022-08-17T23:27:15.205Z,9.65
2022-08-17T23:30:08.653Z,9.63
2022-08-17T23:33:03.089Z,9.27
2022-08-17T23:36:00.142Z,9.90
2022-08-17T23:39:06.631Z,10.07
2022-08-17T23:42:31.097Z,9.80
2022-08-17T23:45:45.169Z,9.27
2022-08-17T23:48:44.443Z,9.90
2022-08-17T23:56:10.079Z,10.55
2022-08-17T23:58:46.382Z,9.82
